Terminal Aerodrome Forecast
Issued by NWS Sterling, VA

Home | Current Version | Previous Version | Text Only | Print | Product List | Glossary On
Versions: 1 2 3 4 5 6 7 8 9 10 11 12
000
FTUS41 KLWX 171100
TAFMRB
TAF
KMRB 171123Z 1712/1812 VRB03KT P6SM SCT050
     FM171900 20004KT P6SM SCT050
     FM172300 VRB03KT P6SM FEW050
     FM180600 00000KT 5SM BR SCT050=

USA.gov is the U.S. government's official web portal to all federal, state and local government web resources and services.